Terminal Aerodrome Forecast
Issued by NWS Northern Indiana

Home | Current Version | Previous Version | Text Only | Print | Product List | Glossary On
Versions: 1 2 3 4 5 6 7 8 9 10 11 12 13 14 15 16 17 18 19
473
FTUS43 KIWX 252351
TAFFWA
TAF
KFWA 252351Z 2600/2624 27013G20KT P6SM OVC035
     FM260200 28012KT P6SM BKN035
     FM260800 26007KT P6SM SCT120
     FM261200 23009KT P6SM SCT200
     FM261800 21015G24KT P6SM SCT120 BKN200=

USA.gov is the U.S. government's official web portal to all federal, state and local government web resources and services.